createdAt,value
2022-08-26T00:02:00.461Z,89.41
2022-08-26T00:04:29.267Z,89.15
2022-08-26T00:06:58.060Z,88.65
2022-08-26T00:09:27.098Z,88.28
2022-08-26T00:11:55.690Z,89.07
2022-08-26T00:14:31.249Z,89.70
2022-08-26T00:17:00.053Z,89.89
2022-08-26T00:19:28.671Z,89.75
2022-08-26T00:21:56.866Z,89.67
2022-08-26T00:24:25.043Z,89.21
2022-08-26T00:26:53.829Z,89.23
2022-08-26T00:29:22.439Z,89.11
2022-08-26T00:31:52.387Z,89.66
2022-08-26T00:34:20.562Z,89.48
2022-08-26T00:36:51.736Z,89.43
2022-08-26T00:39:21.056Z,89.36
2022-08-26T00:41:50.116Z,89.31
2022-08-26T00:44:19.169Z,89.15
2022-08-26T00:46:52.603Z,89.27
2022-08-26T00:49:25.833Z,90.24
2022-08-26T00:51:56.680Z,89.69
2022-08-26T00:54:28.088Z,90.18
2022-08-26T00:57:01.006Z,89.47
2022-08-26T00:59:33.006Z,89.62
2022-08-26T01:02:03.303Z,89.83
2022-08-26T01:04:34.031Z,89.38
2022-08-26T01:07:02.791Z,89.28
2022-08-26T01:09:31.613Z,89.37
2022-08-26T01:12:02.987Z,88.66
2022-08-26T01:14:33.875Z,88.76
2022-08-26T01:17:06.117Z,88.79
2022-08-26T01:19:41.553Z,89.50
2022-08-26T01:22:12.896Z,89.72
2022-08-26T01:24:42.785Z,89.81
2022-08-26T01:27:13.759Z,89.36
2022-08-26T01:29:44.058Z,89.92
2022-08-26T01:32:15.721Z,90.07
2022-08-26T01:34:43.830Z,90.01
2022-08-26T01:37:15.498Z,90.17
2022-08-26T01:39:49.566Z,90.11
2022-08-26T01:42:19.252Z,90.03
2022-08-26T01:44:53.229Z,90.41
2022-08-26T01:47:24.580Z,90.74
2022-08-26T01:49:56.247Z,90.48
2022-08-26T01:52:27.994Z,90.34
2022-08-26T01:54:59.937Z,90.39
2022-08-26T01:57:28.460Z,90.69
2022-08-26T01:59:59.465Z,90.60
2022-08-26T02:02:27.942Z,90.47
2022-08-26T02:04:59.857Z,90.71
2022-08-26T02:07:29.153Z,91.02
2022-08-26T02:09:58.729Z,91.13
2022-08-26T02:12:27.967Z,91.02
2022-08-26T02:14:59.868Z,91.42
2022-08-26T02:17:34.855Z,91.21
2022-08-26T02:20:03.964Z,91.02
2022-08-26T02:22:34.266Z,91.42
2022-08-26T02:25:13.027Z,91.73
2022-08-26T02:27:42.057Z,91.94
2022-08-26T02:30:14.160Z,91.46
2022-08-26T02:32:46.413Z,91.52
2022-08-26T02:35:20.049Z,91.56
2022-08-26T02:37:49.460Z,91.65
2022-08-26T02:40:22.894Z,92.03
2022-08-26T02:42:53.054Z,91.87
2022-08-26T02:45:24.637Z,92.16
2022-08-26T02:47:53.389Z,92.11
2022-08-26T02:50:22.663Z,92.30
2022-08-26T02:52:50.815Z,92.43
2022-08-26T02:55:20.732Z,92.26
2022-08-26T02:57:53.216Z,92.69
2022-08-26T03:00:21.710Z,92.66
2022-08-26T03:02:52.280Z,92.55
2022-08-26T03:05:21.960Z,92.43
2022-08-26T03:07:52.693Z,92.48
2022-08-26T03:10:24.100Z,92.61
2022-08-26T03:12:54.482Z,92.71
2022-08-26T03:15:22.664Z,92.22
2022-08-26T03:17:50.845Z,92.98
2022-08-26T03:20:19.554Z,92.55
2022-08-26T03:22:48.105Z,93.14
2022-08-26T03:25:18.221Z,93.34
2022-08-26T03:27:48.254Z,93.77
2022-08-26T03:30:34.931Z,93.64
2022-08-26T03:33:03.054Z,93.47
2022-08-26T03:35:32.230Z,94.12
2022-08-26T03:38:00.998Z,94.12
2022-08-26T03:40:30.197Z,94.31
2022-08-26T03:42:59.813Z,94.09
2022-08-26T03:45:28.106Z,93.82
2022-08-26T03:47:57.807Z,93.51
2022-08-26T03:50:27.238Z,93.49
2022-08-26T03:52:56.049Z,93.81
2022-08-26T03:55:26.549Z,93.82
2022-08-26T03:57:55.884Z,93.92
2022-08-26T04:00:25.961Z,94.54
2022-08-26T04:02:54.293Z,94.43
2022-08-26T04:05:24.550Z,94.44
2022-08-26T04:07:53.178Z,94.55
2022-08-26T04:10:28.783Z,94.66
2022-08-26T04:12:59.220Z,94.75
2022-08-26T04:15:29.419Z,94.67
2022-08-26T04:17:57.750Z,94.65
2022-08-26T04:20:26.394Z,94.49
2022-08-26T04:22:54.856Z,95.03
2022-08-26T04:25:24.332Z,94.81
2022-08-26T04:27:52.731Z,94.84
2022-08-26T04:30:21.304Z,94.72
2022-08-26T04:32:51.225Z,94.92
2022-08-26T04:35:22.781Z,95.00
2022-08-26T04:37:54.438Z,95.46
2022-08-26T04:40:22.670Z,95.43
2022-08-26T04:42:50.763Z,95.29
2022-08-26T04:45:19.424Z,95.14
2022-08-26T04:47:56.412Z,95.04
2022-08-26T04:50:25.830Z,94.92
2022-08-26T04:52:55.416Z,95.22
2022-08-26T04:55:38.232Z,95.12
2022-08-26T04:58:10.148Z,94.55
2022-08-26T05:00:38.904Z,94.80
2022-08-26T05:03:10.454Z,95.05
2022-08-26T05:05:43.245Z,95.53
2022-08-26T05:08:12.685Z,95.81
2022-08-26T05:10:43.644Z,95.89
2022-08-26T05:13:15.190Z,95.74
2022-08-26T05:15:45.211Z,95.41
2022-08-26T05:18:16.421Z,95.08
2022-08-26T05:20:46.835Z,95.12
2022-08-26T05:23:15.484Z,95.24
2022-08-26T05:25:45.661Z,95.09
2022-08-26T05:28:16.108Z,95.43
2022-08-26T05:30:44.510Z,95.05
2022-08-26T05:33:14.484Z,94.91
2022-08-26T05:35:43.698Z,94.05
2022-08-26T05:38:15.645Z,93.19
2022-08-26T05:40:46.598Z,93.37
2022-08-26T05:43:15.075Z,93.03
2022-08-26T05:45:45.493Z,92.56
2022-08-26T05:48:17.302Z,93.35
2022-08-26T05:50:48.784Z,93.79
2022-08-26T05:53:20.274Z,93.94
2022-08-26T05:55:50.368Z,94.20
2022-08-26T05:58:20.285Z,94.05
2022-08-26T06:00:57.286Z,94.20
2022-08-26T06:03:26.881Z,93.31
2022-08-26T06:05:55.178Z,93.67
2022-08-26T06:08:23.247Z,92.40
2022-08-26T06:10:54.641Z,91.13
2022-08-26T06:13:26.844Z,91.03
2022-08-26T06:15:56.534Z,90.82
2022-08-26T06:18:27.345Z,90.72
2022-08-26T06:20:58.489Z,91.07
2022-08-26T06:23:45.790Z,91.13
2022-08-26T06:26:14.792Z,90.61
2022-08-26T06:28:45.479Z,88.34
2022-08-26T06:31:14.340Z,86.53
2022-08-26T06:33:42.512Z,86.05
2022-08-26T06:36:17.301Z,83.89
2022-08-26T06:38:47.711Z,83.48
2022-08-26T06:41:16.631Z,82.90
2022-08-26T06:43:45.816Z,84.71
2022-08-26T06:46:16.598Z,83.63
2022-08-26T06:48:44.974Z,82.07
2022-08-26T06:51:16.285Z,81.95
2022-08-26T06:53:47.072Z,81.54
2022-08-26T06:56:18.995Z,81.13
2022-08-26T06:58:47.032Z,80.83
2022-08-26T07:01:20.834Z,80.98
2022-08-26T07:03:50.581Z,80.46
2022-08-26T07:06:20.813Z,80.29
2022-08-26T07:08:49.746Z,79.86
2022-08-26T07:11:19.001Z,81.77
2022-08-26T07:13:47.550Z,79.33
2022-08-26T07:16:17.711Z,79.13
2022-08-26T07:18:46.693Z,79.33
2022-08-26T07:21:17.266Z,78.83
2022-08-26T07:23:48.975Z,79.33
2022-08-26T07:26:20.211Z,78.39
2022-08-26T07:28:50.626Z,77.93
2022-08-26T07:31:23.745Z,77.06
2022-08-26T07:33:52.169Z,76.70
2022-08-26T07:36:21.630Z,77.04
2022-08-26T07:38:52.105Z,75.52
2022-08-26T07:41:22.828Z,75.37
2022-08-26T07:43:51.470Z,74.55
2022-08-26T07:46:20.841Z,73.74
2022-08-26T07:48:56.416Z,73.16
2022-08-26T07:51:24.963Z,73.48
2022-08-26T07:53:55.334Z,72.90
2022-08-26T07:56:24.133Z,73.19
2022-08-26T07:58:54.360Z,73.02
2022-08-26T08:01:24.141Z,72.97
2022-08-26T08:03:53.991Z,73.54
2022-08-26T08:06:27.060Z,73.26
2022-08-26T08:08:57.681Z,73.84
2022-08-26T08:11:27.278Z,74.63
2022-08-26T08:13:56.992Z,74.43
2022-08-26T08:16:26.950Z,75.01
2022-08-26T08:18:56.494Z,75.37
2022-08-26T08:21:25.548Z,75.53
2022-08-26T08:23:55.915Z,76.00
2022-08-26T08:26:27.220Z,75.66
2022-08-26T08:28:57.051Z,75.46
2022-08-26T08:34:15.054Z,75.45
2022-08-26T08:36:43.427Z,75.88
2022-08-26T08:39:11.769Z,74.02
2022-08-26T08:41:54.753Z,73.29
2022-08-26T08:46:56.800Z,72.22
2022-08-26T08:49:26.953Z,72.08
2022-08-26T08:52:02.590Z,71.76
2022-08-26T08:54:33.969Z,71.54
2022-08-26T08:57:12.266Z,71.79
2022-08-26T08:59:50.923Z,71.10
2022-08-26T09:02:25.838Z,71.64
2022-08-26T09:05:04.531Z,70.85
2022-08-26T09:07:37.632Z,71.22
2022-08-26T09:10:27.733Z,72.25
2022-08-26T09:12:57.233Z,71.74
2022-08-26T09:15:30.207Z,71.08
2022-08-26T09:18:17.139Z,71.24
2022-08-26T09:20:52.992Z,70.71
2022-08-26T09:23:21.119Z,71.83
2022-08-26T09:25:51.414Z,70.91
2022-08-26T09:28:23.160Z,69.81
2022-08-26T09:31:03.549Z,70.03
2022-08-26T09:33:33.993Z,69.20
2022-08-26T09:36:23.058Z,69.43
2022-08-26T09:38:53.522Z,68.69
2022-08-26T09:41:31.550Z,69.79
2022-08-26T09:44:20.724Z,70.29
2022-08-26T09:46:56.601Z,70.23
2022-08-26T09:49:31.653Z,70.17
2022-08-26T09:52:12.799Z,70.39
2022-08-26T09:54:42.161Z,70.26
2022-08-26T09:57:20.417Z,69.70
2022-08-26T09:59:51.052Z,69.51
2022-08-26T10:02:36.915Z,68.91
2022-08-26T10:05:09.839Z,68.84
2022-08-26T10:07:42.905Z,69.10
2022-08-26T10:10:15.989Z,69.04
2022-08-26T10:12:50.710Z,68.52
2022-08-26T10:15:21.119Z,68.35
2022-08-26T10:17:56.624Z,68.73
2022-08-26T10:20:28.033Z,68.37
2022-08-26T10:23:02.155Z,68.39
2022-08-26T10:25:34.443Z,68.01
2022-08-26T10:28:10.807Z,67.74
2022-08-26T10:30:47.068Z,66.75
2022-08-26T10:33:18.179Z,67.92
2022-08-26T10:35:51.994Z,66.75
2022-08-26T10:38:29.479Z,66.89
2022-08-26T10:41:03.320Z,66.86
2022-08-26T10:43:42.545Z,66.51
2022-08-26T10:46:17.205Z,66.76
2022-08-26T10:48:49.105Z,66.42
2022-08-26T10:51:24.026Z,67.35
2022-08-26T10:53:55.943Z,66.34
2022-08-26T10:56:39.156Z,66.52
2022-08-26T10:59:14.114Z,65.01
2022-08-26T11:01:50.946Z,65.31
2022-08-26T11:04:43.400Z,65.73
2022-08-26T11:07:37.372Z,63.15
2022-08-26T11:10:09.910Z,62.36
2022-08-26T11:13:01.062Z,63.06
2022-08-26T11:16:11.204Z,64.09
2022-08-26T11:18:48.637Z,64.42
2022-08-26T11:21:44.860Z,65.49
2022-08-26T11:24:48.816Z,66.51
2022-08-26T11:28:03.773Z,67.20
2022-08-26T11:30:56.913Z,67.32
2022-08-26T11:33:59.518Z,68.63
2022-08-26T11:36:59.749Z,68.68
2022-08-26T11:39:33.370Z,68.16
2022-08-26T11:42:20.323Z,68.53
2022-08-26T11:44:49.850Z,67.44
2022-08-26T11:47:26.757Z,67.21
2022-08-26T11:50:26.916Z,66.37
2022-08-26T11:52:59.176Z,65.69
2022-08-26T11:55:27.529Z,65.50
2022-08-26T11:58:00.114Z,65.68
2022-08-26T12:00:33.376Z,65.91
2022-08-26T12:03:06.914Z,65.69
2022-08-26T12:05:44.555Z,65.10
2022-08-26T12:08:18.072Z,64.90
2022-08-26T12:10:49.115Z,65.17
2022-08-26T12:13:24.075Z,65.08
2022-08-26T12:15:56.617Z,65.50
2022-08-26T12:18:28.878Z,64.07
2022-08-26T12:21:03.221Z,64.62
2022-08-26T12:23:44.621Z,65.11
2022-08-26T12:26:21.734Z,64.79
2022-08-26T12:28:54.017Z,66.10
2022-08-26T12:31:32.533Z,67.40
2022-08-26T12:34:04.171Z,68.62
2022-08-26T12:36:40.146Z,68.67
2022-08-26T12:39:11.597Z,69.00
2022-08-26T12:41:43.389Z,70.08
2022-08-26T12:44:35.319Z,70.17
2022-08-26T12:47:08.409Z,70.42
2022-08-26T12:49:37.833Z,70.47
2022-08-26T12:52:08.094Z,70.13
2022-08-26T12:54:56.701Z,69.86
2022-08-26T12:57:29.059Z,69.50
2022-08-26T13:00:30.719Z,68.60
2022-08-26T13:03:00.315Z,67.73
2022-08-26T13:05:33.043Z,67.63
2022-08-26T13:08:15.369Z,68.00
2022-08-26T13:10:46.964Z,67.98
2022-08-26T13:13:15.326Z,69.06
2022-08-26T13:15:43.394Z,69.38
2022-08-26T13:18:11.503Z,68.92
2022-08-26T13:20:44.688Z,68.20
2022-08-26T13:23:14.768Z,68.27
2022-08-26T13:25:45.161Z,69.42
2022-08-26T13:28:13.194Z,71.87
2022-08-26T13:30:43.517Z,71.52
2022-08-26T13:33:12.579Z,71.33
2022-08-26T13:35:42.827Z,69.31
2022-08-26T13:38:33.349Z,69.10
2022-08-26T13:41:04.097Z,69.58
2022-08-26T13:43:32.638Z,69.31
2022-08-26T13:46:01.527Z,63.96
2022-08-26T13:48:31.473Z,61.14
2022-08-26T13:51:00.320Z,60.73
2022-08-26T13:53:31.138Z,61.23
2022-08-26T13:56:05.943Z,59.62
2022-08-26T13:58:35.036Z,58.73
2022-08-26T14:01:03.191Z,57.68
2022-08-26T14:03:31.591Z,58.64
2022-08-26T14:05:59.820Z,56.52
2022-08-26T14:08:28.267Z,56.79
2022-08-26T14:10:56.512Z,56.17
2022-08-26T14:13:26.214Z,57.10
2022-08-26T14:15:56.682Z,55.53
2022-08-26T14:18:30.272Z,54.24
2022-08-26T14:20:58.929Z,55.39
2022-08-26T14:23:27.481Z,54.45
2022-08-26T14:25:55.661Z,57.76
2022-08-26T14:30:59.335Z,61.95
2022-08-26T14:33:32.329Z,59.89
2022-08-26T14:36:14.479Z,59.01
2022-08-26T14:38:42.521Z,56.62
2022-08-26T14:41:11.270Z,54.86
2022-08-26T14:43:48.011Z,56.25
2022-08-26T14:46:17.947Z,56.28
2022-08-26T14:48:46.045Z,56.63
2022-08-26T14:51:14.311Z,56.40
2022-08-26T14:54:08.139Z,58.60
2022-08-26T14:56:38.266Z,56.81
2022-08-26T14:59:09.389Z,56.21
2022-08-26T15:01:37.751Z,57.30
2022-08-26T15:04:05.883Z,58.63
2022-08-26T15:06:35.648Z,57.62
2022-08-26T15:09:04.705Z,59.53
2022-08-26T15:11:32.971Z,62.10
2022-08-26T15:14:01.201Z,61.15
2022-08-26T15:16:30.737Z,66.33
2022-08-26T15:18:59.199Z,66.90
2022-08-26T15:21:27.647Z,63.57
2022-08-26T15:23:55.748Z,64.64
2022-08-26T15:26:24.274Z,66.67
2022-08-26T15:28:53.761Z,67.48
2022-08-26T15:31:30.901Z,64.88
2022-08-26T15:34:02.724Z,66.87
2022-08-26T15:36:32.629Z,68.31
2022-08-26T15:39:02.355Z,69.22
2022-08-26T15:41:30.661Z,68.68
2022-08-26T15:44:07.704Z,64.42
2022-08-26T15:46:38.416Z,63.08
2022-08-26T15:49:09.139Z,65.12
2022-08-26T15:51:51.305Z,67.68
2022-08-26T15:54:22.172Z,68.16
2022-08-26T15:56:53.135Z,65.21
2022-08-26T15:59:23.625Z,64.15
2022-08-26T16:01:51.841Z,64.70
2022-08-26T16:04:21.722Z,64.65
2022-08-26T16:06:51.638Z,66.12
2022-08-26T16:09:20.746Z,68.47
2022-08-26T16:11:48.761Z,70.79
2022-08-26T16:14:18.152Z,72.65
2022-08-26T16:16:47.128Z,74.42
2022-08-26T16:19:15.476Z,76.70
2022-08-26T16:21:45.276Z,80.07
2022-08-26T16:24:14.150Z,86.05
2022-08-26T16:26:44.016Z,90.91
2022-08-26T16:29:14.130Z,95.65
2022-08-26T16:31:42.854Z,96.54
2022-08-26T16:34:11.255Z,97.87
2022-08-26T16:36:40.884Z,97.83
2022-08-26T16:39:11.074Z,99.99
2022-08-26T16:41:39.208Z,99.99
2022-08-26T16:44:08.910Z,99.99
2022-08-26T16:46:37.002Z,99.99
2022-08-26T16:49:05.306Z,96.72
2022-08-26T16:51:38.072Z,94.98
2022-08-26T16:54:07.834Z,90.42
2022-08-26T16:56:37.906Z,90.16
2022-08-26T16:59:07.904Z,89.91
2022-08-26T17:01:36.069Z,91.01
2022-08-26T17:04:04.658Z,90.91
2022-08-26T17:06:32.727Z,91.37
2022-08-26T17:09:00.726Z,92.81
2022-08-26T17:11:28.659Z,92.65
2022-08-26T17:13:58.069Z,93.02
2022-08-26T17:16:27.253Z,92.49
2022-08-26T17:18:56.572Z,93.11
2022-08-26T17:21:25.562Z,95.37
2022-08-26T17:23:54.179Z,97.11
2022-08-26T17:26:22.647Z,96.96
2022-08-26T17:28:51.582Z,97.63
2022-08-26T17:31:21.736Z,97.39
2022-08-26T17:33:53.389Z,96.24
2022-08-26T17:36:28.068Z,97.62
2022-08-26T17:38:57.538Z,97.89
2022-08-26T17:41:26.791Z,97.84
2022-08-26T17:43:54.918Z,94.94
2022-08-26T17:46:25.113Z,96.35
2022-08-26T17:48:53.213Z,95.34
2022-08-26T17:51:23.620Z,98.90
2022-08-26T17:53:52.698Z,99.75
2022-08-26T17:56:25.553Z,99.47
2022-08-26T17:58:55.127Z,95.78
2022-08-26T18:01:28.023Z,95.62
2022-08-26T18:04:00.238Z,97.24
2022-08-26T18:06:31.231Z,94.59
2022-08-26T18:08:59.754Z,94.10
2022-08-26T18:11:28.473Z,94.35
2022-08-26T18:13:56.558Z,95.54
2022-08-26T18:16:26.077Z,92.50
2022-08-26T18:18:54.713Z,93.26
2022-08-26T18:21:25.321Z,94.84
2022-08-26T18:23:54.319Z,96.65
2022-08-26T18:26:25.367Z,98.52
2022-08-26T18:28:54.025Z,97.80
2022-08-26T18:31:22.250Z,95.57
2022-08-26T18:33:51.857Z,95.30
2022-08-26T18:36:21.922Z,94.91
2022-08-26T18:38:51.059Z,92.88
2022-08-26T18:41:20.721Z,94.70
2022-08-26T18:43:50.476Z,92.65
2022-08-26T18:46:19.368Z,93.24
2022-08-26T18:48:50.763Z,93.24
2022-08-26T18:51:23.265Z,92.85
2022-08-26T18:53:51.821Z,93.48
2022-08-26T18:56:19.982Z,94.18
2022-08-26T18:58:48.302Z,92.67
2022-08-26T19:01:17.018Z,91.77
2022-08-26T19:03:45.804Z,92.60
2022-08-26T19:06:17.761Z,91.84
2022-08-26T19:08:49.926Z,93.24
2022-08-26T19:11:32.593Z,91.18
2022-08-26T19:14:07.594Z,91.21
2022-08-26T19:16:36.494Z,91.40
2022-08-26T19:19:05.047Z,91.87
2022-08-26T19:21:34.296Z,91.80
2022-08-26T19:24:07.004Z,92.82
2022-08-26T19:26:35.546Z,92.20
2022-08-26T19:29:03.859Z,92.09
2022-08-26T19:31:32.346Z,91.23
2022-08-26T19:34:00.462Z,91.70
2022-08-26T19:36:29.472Z,91.14
2022-08-26T19:38:57.657Z,90.81
2022-08-26T19:41:36.811Z,91.08
2022-08-26T19:44:08.372Z,90.74
2022-08-26T19:46:40.007Z,91.15
2022-08-26T19:49:08.427Z,90.82
2022-08-26T19:51:37.728Z,91.25
2022-08-26T19:54:06.138Z,90.73
2022-08-26T19:56:35.798Z,91.26
2022-08-26T19:59:03.906Z,91.38
2022-08-26T20:01:32.187Z,91.58
2022-08-26T20:04:00.291Z,91.69
2022-08-26T20:06:28.393Z,92.23
2022-08-26T20:08:56.538Z,91.72
2022-08-26T20:11:25.048Z,92.07
2022-08-26T20:13:55.268Z,91.88
2022-08-26T20:16:23.482Z,92.48
2022-08-26T20:19:09.386Z,92.06
2022-08-26T20:21:39.785Z,92.52
2022-08-26T20:24:12.495Z,91.31
2022-08-26T20:26:42.497Z,92.61
2022-08-26T20:29:13.659Z,91.72
2022-08-26T20:31:44.144Z,91.52
2022-08-26T20:34:13.273Z,91.68
2022-08-26T20:36:42.542Z,91.53
2022-08-26T20:39:11.757Z,91.29
2022-08-26T20:41:40.245Z,91.48
2022-08-26T20:44:09.403Z,91.37
2022-08-26T20:46:39.510Z,91.47
2022-08-26T20:49:08.376Z,91.79
2022-08-26T20:51:37.396Z,91.87
2022-08-26T20:54:07.029Z,91.99
2022-08-26T20:56:35.266Z,92.77
2022-08-26T20:59:04.236Z,92.16
2022-08-26T21:01:35.392Z,91.52
2022-08-26T21:04:07.477Z,91.48
2022-08-26T21:06:38.244Z,91.28
2022-08-26T21:09:08.407Z,91.63
2022-08-26T21:11:37.360Z,91.88
2022-08-26T21:14:16.220Z,91.85
2022-08-26T21:16:46.233Z,93.09
2022-08-26T21:19:18.018Z,92.51
2022-08-26T21:21:46.231Z,92.41
2022-08-26T21:24:14.775Z,92.44
2022-08-26T21:26:43.281Z,92.47
2022-08-26T21:29:13.502Z,92.08
2022-08-26T21:31:46.045Z,91.54
2022-08-26T21:34:17.642Z,91.39
2022-08-26T21:36:46.335Z,91.58
2022-08-26T21:39:15.038Z,91.61
2022-08-26T21:41:44.453Z,91.24
2022-08-26T21:44:14.329Z,91.34
2022-08-26T21:46:44.119Z,92.09
2022-08-26T21:49:12.823Z,91.90
2022-08-26T21:51:44.814Z,91.41
2022-08-26T21:54:14.176Z,91.62
2022-08-26T21:56:46.644Z,91.49
2022-08-26T21:59:16.617Z,91.53
2022-08-26T22:01:44.754Z,91.87
2022-08-26T22:04:12.884Z,91.94
2022-08-26T22:06:44.531Z,91.59
2022-08-26T22:09:14.780Z,91.71
2022-08-26T22:11:44.112Z,91.83
2022-08-26T22:14:13.103Z,91.40
2022-08-26T22:16:42.342Z,91.91
2022-08-26T22:19:20.090Z,91.51
2022-08-26T22:21:51.531Z,91.71
2022-08-26T22:24:21.880Z,92.04
2022-08-26T22:26:50.809Z,92.22
2022-08-26T22:29:19.756Z,92.48
2022-08-26T22:31:48.062Z,92.61
2022-08-26T22:34:19.633Z,92.51
2022-08-26T22:36:50.499Z,92.59
2022-08-26T22:39:22.187Z,92.49
2022-08-26T22:41:50.864Z,92.28
2022-08-26T22:44:21.041Z,92.50
2022-08-26T22:46:51.065Z,92.31
2022-08-26T22:49:19.650Z,92.94
2022-08-26T22:51:49.439Z,92.89
2022-08-26T22:54:18.440Z,92.86
2022-08-26T22:56:46.753Z,92.77
2022-08-26T22:59:16.260Z,92.88
2022-08-26T23:01:47.035Z,93.48
2022-08-26T23:04:15.731Z,93.21
2022-08-26T23:06:47.751Z,92.81
2022-08-26T23:09:18.441Z,93.42
2022-08-26T23:11:47.817Z,93.58
2022-08-26T23:14:17.548Z,93.18
2022-08-26T23:16:45.398Z,93.43
2022-08-26T23:19:15.191Z,94.27
2022-08-26T23:21:43.008Z,94.18
2022-08-26T23:24:11.721Z,94.20
2022-08-26T23:26:43.123Z,94.18
2022-08-26T23:29:13.607Z,94.34
2022-08-26T23:31:42.933Z,94.44
2022-08-26T23:34:28.840Z,94.26
2022-08-26T23:36:58.020Z,94.10
2022-08-26T23:39:26.941Z,94.25
2022-08-26T23:41:56.908Z,94.34
2022-08-26T23:44:26.482Z,94.42
2022-08-26T23:46:54.713Z,94.81
2022-08-26T23:49:22.817Z,94.81
2022-08-26T23:52:08.343Z,95.21
2022-08-26T23:54:36.360Z,95.16
2022-08-26T23:57:06.742Z,95.59
2022-08-26T23:59:35.025Z,95.54
